Time;durP1;ratioP1;P1;durP2;ratioP2;P2;SDS_P1;SDS_P2;PMS_P1;PMS_P2;Temp;Humidity;BMP_temperature;BMP_pressure;BME280_temperature;BME280_humidity;BME280_pressure;Samples;Min_cycle;Max_cycle;Signal;HPM_P1;HPM_P2
2024/03/22 00:01:57;;;;;;;32.20;18.57;;;11.30;99.90;;;;;;5025615;28;20644;-75
2024/03/22 00:04:23;;;;;;;34.77;19.63;;;11.30;99.90;;;;;;5032809;28;20522;-74
2024/03/22 00:06:50;;;;;;;34.30;19.03;;;11.30;99.90;;;;;;5032743;28;20246;-73
2024/03/22 00:09:16;;;;;;;30.70;17.30;;;11.40;99.90;;;;;;5032221;28;20171;-73
2024/03/22 00:11:43;;;;;;;31.07;17.93;;;11.30;99.90;;;;;;5032415;28;20186;-73
2024/03/22 00:14:09;;;;;;;32.80;18.27;;;11.40;99.90;;;;;;5030934;28;20163;-73
2024/03/22 00:16:35;;;;;;;37.53;17.97;;;11.30;99.90;;;;;;5030467;28;20206;-74
2024/03/22 00:19:02;;;;;;;27.27;16.67;;;11.40;99.90;;;;;;5031622;28;20171;-73
2024/03/22 00:21:28;;;;;;;29.47;17.13;;;11.30;99.90;;;;;;5033548;28;20225;-74
2024/03/22 00:23:53;;;;;;;31.13;17.67;;;11.30;99.90;;;;;;5033461;28;20175;-74
2024/03/22 00:26:19;;;;;;;29.30;17.53;;;11.30;99.90;;;;;;5032939;28;20246;-73
2024/03/22 00:28:45;;;;;;;30.50;16.80;;;11.30;99.90;;;;;;5031738;28;20201;-73
2024/03/22 00:31:10;;;;;;;30.30;16.73;;;11.30;99.90;;;;;;5030709;28;20263;-73
2024/03/22 00:33:36;;;;;;;31.30;18.23;;;11.30;99.90;;;;;;5030692;28;20167;-73
2024/03/22 00:36:02;;;;;;;28.23;16.90;;;11.30;99.90;;;;;;5011135;28;20507;-74
2024/03/22 00:38:27;;;;;;;31.53;17.10;;;11.30;99.90;;;;;;5011173;28;20609;-74
2024/03/22 00:40:53;;;;;;;31.07;16.20;;;11.30;99.90;;;;;;5011234;28;20207;-72
2024/03/22 00:43:20;;;;;;;33.87;17.13;;;11.20;99.90;;;;;;5011168;28;20223;-73
2024/03/22 00:45:46;;;;;;;29.47;16.77;;;11.20;99.90;;;;;;5010690;28;20273;-73
2024/03/22 00:48:11;;;;;;;31.20;17.40;;;11.30;99.90;;;;;;5010945;28;20168;-73
2024/03/22 00:50:37;;;;;;;33.13;15.97;;;11.20;99.90;;;;;;5029182;28;20187;-72
2024/03/22 00:53:03;;;;;;;32.83;17.77;;;11.20;99.90;;;;;;5031941;28;20175;-72
2024/03/22 00:55:29;;;;;;;35.23;17.77;;;11.20;99.90;;;;;;5031097;28;20203;-73
2024/03/22 00:57:55;;;;;;;34.97;17.03;;;11.20;99.90;;;;;;5031637;28;20179;-73
2024/03/22 01:00:21;;;;;;;30.40;17.20;;;11.20;99.90;;;;;;5032110;28;20171;-73
2024/03/22 01:02:46;;;;;;;31.87;16.93;;;11.20;99.90;;;;;;5031584;28;20199;-73
2024/03/22 01:05:12;;;;;;;31.33;16.23;;;11.20;99.90;;;;;;5029771;28;20245;-73
2024/03/22 01:07:37;;;;;;;29.13;16.03;;;11.20;99.90;;;;;;5031452;28;20172;-73
2024/03/22 01:10:04;;;;;;;29.17;16.00;;;11.20;99.90;;;;;;5031350;28;20636;-73
2024/03/22 01:12:30;;;;;;;28.03;16.03;;;11.20;99.90;;;;;;5031459;28;20172;-74
2024/03/22 01:14:55;;;;;;;26.17;15.57;;;11.20;99.90;;;;;;5032478;28;20187;-73
2024/03/22 01:17:21;;;;;;;31.07;15.33;;;11.10;99.90;;;;;;5035340;28;20199;-73
2024/03/22 01:19:46;;;;;;;24.20;14.43;;;11.10;99.90;;;;;;5035078;28;20635;-73
2024/03/22 01:22:12;;;;;;;23.47;13.97;;;11.10;99.90;;;;;;5032883;28;20199;-73
2024/03/22 01:24:37;;;;;;;27.33;15.10;;;11.10;99.90;;;;;;5034026;28;20636;-73
2024/03/22 01:27:03;;;;;;;25.97;14.03;;;11.10;99.90;;;;;;5016916;28;20195;-73
2024/03/22 01:29:31;;;;;;;21.13;13.13;;;11.10;99.90;;;;;;5014389;28;20614;-73
2024/03/22 01:31:59;;;;;;;21.63;12.97;;;11.20;99.90;;;;;;5014270;28;20678;-73
2024/03/22 01:34:25;;;;;;;25.60;13.93;;;11.10;99.90;;;;;;5014057;28;20172;-72
2024/03/22 01:36:53;;;;;;;21.43;13.57;;;11.10;99.90;;;;;;5014208;28;20705;-72
2024/03/22 01:39:23;;;;;;;27.50;14.93;;;11.10;99.90;;;;;;5018901;28;20171;-73
2024/03/22 01:41:49;;;;;;;26.30;13.17;;;11.00;99.90;;;;;;5033804;28;20255;-72
2024/03/22 01:44:15;;;;;;;22.00;13.63;;;11.00;99.90;;;;;;5033711;28;20842;-72
2024/03/22 01:46:42;;;;;;;20.60;13.40;;;11.00;99.90;;;;;;5033637;28;20211;-74
2024/03/22 01:49:13;;;;;;;19.53;13.27;;;11.00;99.90;;;;;;5033846;28;20513;-73
2024/03/22 01:51:40;;;;;;;23.77;12.77;;;11.00;99.90;;;;;;5033302;28;20274;-73
2024/03/22 01:54:08;;;;;;;23.07;14.17;;;11.00;99.90;;;;;;5033562;28;20176;-73
2024/03/22 01:56:37;;;;;;;23.13;13.07;;;11.00;99.90;;;;;;5028221;28;20743;-73
2024/03/22 01:59:04;;;;;;;25.70;14.63;;;10.90;99.90;;;;;;5013965;28;20184;-73
2024/03/22 02:01:29;;;;;;;21.07;13.13;;;10.90;99.90;;;;;;5013676;28;20199;-74
2024/03/22 02:03:55;;;;;;;22.93;13.47;;;10.90;99.90;;;;;;5013607;28;20221;-72
2024/03/22 02:06:21;;;;;;;26.20;14.80;;;11.00;99.90;;;;;;5013429;28;20267;-73
2024/03/22 02:08:46;;;;;;;23.47;14.00;;;11.00;99.90;;;;;;5028851;28;20179;-73
2024/03/22 02:11:12;;;;;;;22.77;14.20;;;10.90;99.90;;;;;;5033639;28;20175;-73
2024/03/22 02:13:37;;;;;;;20.30;12.63;;;11.00;99.90;;;;;;5031442;28;20180;-73
2024/03/22 02:16:03;;;;;;;22.07;13.50;;;11.00;99.90;;;;;;5013061;28;20243;-74
2024/03/22 02:18:29;;;;;;;21.47;12.80;;;11.00;99.90;;;;;;5013471;28;20184;-72
2024/03/22 02:20:57;;;;;;;20.70;13.07;;;10.90;99.90;;;;;;5013281;28;20593;-72
2024/03/22 02:23:42;;;;;;;20.43;13.17;;;10.90;99.90;;;;;;5013355;28;20215;-73
2024/03/22 02:26:08;;;;;;;20.63;12.33;;;10.90;99.90;;;;;;5012675;28;20207;-73
2024/03/22 02:28:35;;;;;;;19.67;12.93;;;10.90;99.90;;;;;;5013097;28;20547;-73
2024/03/22 02:31:02;;;;;;;21.80;13.70;;;10.90;99.90;;;;;;5015998;28;20172;-73
2024/03/22 02:33:28;;;;;;;19.50;12.47;;;10.90;99.90;;;;;;5031916;28;20676;-73
2024/03/22 02:35:53;;;;;;;21.73;13.33;;;10.90;99.90;;;;;;5032511;28;20468;-73
2024/03/22 02:38:19;;;;;;;20.67;13.37;;;10.90;99.90;;;;;;5031934;28;20268;-72
2024/03/22 02:40:46;;;;;;;20.37;12.20;;;11.00;99.90;;;;;;5032647;28;20234;-73
2024/03/22 02:43:12;;;;;;;17.23;11.67;;;10.90;99.90;;;;;;5032775;28;20729;-72
2024/03/22 02:45:39;;;;;;;19.40;11.50;;;10.90;99.90;;;;;;5032185;28;20278;-73
2024/03/22 02:48:05;;;;;;;22.63;11.73;;;11.00;99.90;;;;;;5030134;28;20250;-72
2024/03/22 02:50:35;;;;;;;23.37;11.93;;;11.00;99.90;;;;;;5013056;28;20176;-72
2024/03/22 02:53:00;;;;;;;19.10;11.73;;;11.10;99.90;;;;;;5012785;28;20267;-72
2024/03/22 02:55:26;;;;;;;17.37;11.67;;;11.10;99.90;;;;;;5011102;28;22008;-74
2024/03/22 02:57:52;;;;;;;18.83;12.80;;;11.10;99.90;;;;;;5013741;28;20427;-72
2024/03/22 03:00:18;;;;;;;16.13;11.77;;;11.10;99.90;;;;;;5012486;28;20211;-72
2024/03/22 03:02:44;;;;;;;17.60;11.77;;;11.20;99.90;;;;;;5012328;28;20235;-72
2024/03/22 03:05:09;;;;;;;18.23;12.70;;;11.20;99.90;;;;;;5013861;28;20450;-72
2024/03/22 03:07:35;;;;;;;17.47;11.30;;;11.20;99.90;;;;;;5032350;28;20180;-73
2024/03/22 03:10:01;;;;;;;18.83;11.30;;;11.20;99.90;;;;;;5032703;28;20262;-73
2024/03/22 03:12:26;;;;;;;15.40;11.87;;;11.20;99.90;;;;;;5032688;28;20592;-72
2024/03/22 03:14:52;;;;;;;17.07;11.20;;;11.20;99.90;;;;;;5032302;28;20365;-72
2024/03/22 03:17:17;;;;;;;17.07;12.30;;;11.10;99.90;;;;;;5032627;28;20196;-73
2024/03/22 03:19:44;;;;;;;20.30;11.60;;;11.10;99.90;;;;;;5030868;28;20642;-73
2024/03/22 03:22:10;;;;;;;17.50;11.60;;;11.20;99.90;;;;;;5032314;28;20583;-72
2024/03/22 03:24:35;;;;;;;20.00;12.37;;;11.20;99.90;;;;;;5030461;28;20244;-73
2024/03/22 03:27:02;;;;;;;16.97;11.07;;;11.10;99.90;;;;;;5032149;28;20556;-73
2024/03/22 03:29:27;;;;;;;15.33;10.10;;;11.10;99.90;;;;;;5032347;28;20551;-73
2024/03/22 03:31:53;;;;;;;16.47;10.67;;;11.10;99.90;;;;;;5032235;28;20283;-72
2024/03/22 03:34:20;;;;;;;15.93;10.83;;;11.00;99.90;;;;;;5032229;28;20593;-74
2024/03/22 03:36:46;;;;;;;19.93;12.10;;;10.90;99.90;;;;;;5030246;28;20214;-72
2024/03/22 03:39:12;;;;;;;18.53;11.27;;;10.90;99.90;;;;;;5017475;28;20597;-73
2024/03/22 03:41:37;;;;;;;14.67;10.77;;;10.80;99.90;;;;;;5013320;28;20208;-73
2024/03/22 03:44:03;;;;;;;15.70;10.60;;;10.80;99.90;;;;;;5012411;28;20202;-74
2024/03/22 03:46:29;;;;;;;16.73;10.80;;;10.80;99.90;;;;;;5011957;28;20717;-72
2024/03/22 03:48:54;;;;;;;16.80;11.60;;;10.80;99.90;;;;;;5012204;28;20183;-73
2024/03/22 03:51:20;;;;;;;15.97;11.50;;;10.70;99.90;;;;;;5012226;28;20182;-73
2024/03/22 03:53:45;;;;;;;15.93;12.47;;;10.70;99.90;;;;;;5011978;28;20187;-74
2024/03/22 03:58:39;;;;;;;17.97;12.13;;;10.70;99.90;;;;;;5030409;28;20226;-71
2024/03/22 04:01:08;;;;;;;15.80;11.60;;;10.70;99.90;;;;;;5031541;28;20199;-71
2024/03/22 04:03:34;;;;;;;18.57;11.23;;;10.70;99.90;;;;;;5031763;28;20179;-71
2024/03/22 04:06:00;;;;;;;17.03;11.13;;;10.60;99.90;;;;;;5036034;28;20194;-71
2024/03/22 04:08:27;;;;;;;20.13;11.27;;;10.60;99.90;;;;;;5051625;28;20174;-71
2024/03/22 04:10:55;;;;;;;16.43;11.00;;;10.50;99.90;;;;;;5051550;28;20667;-71
2024/03/22 04:13:21;;;;;;;16.60;11.37;;;10.50;99.90;;;;;;5051518;28;20167;-71
2024/03/22 04:15:47;;;;;;;15.10;11.57;;;10.40;99.90;;;;;;5050778;28;20247;-70
2024/03/22 04:18:12;;;;;;;14.83;11.00;;;10.30;99.90;;;;;;5050203;28;20167;-71
2024/03/22 04:20:38;;;;;;;16.13;10.43;;;10.20;99.90;;;;;;5051303;28;20175;-71
2024/03/22 04:23:04;;;;;;;15.37;11.87;;;10.20;99.90;;;;;;5051481;28;20206;-70
2024/03/22 04:25:30;;;;;;;17.37;12.60;;;10.10;99.90;;;;;;5050899;28;20223;-71
2024/03/22 04:27:55;;;;;;;19.13;11.73;;;10.00;99.90;;;;;;5051331;28;20236;-71
2024/03/22 04:30:21;;;;;;;18.17;11.50;;;10.00;99.90;;;;;;5051537;28;20627;-71
2024/03/22 04:32:47;;;;;;;18.67;12.40;;;10.00;99.90;;;;;;5051091;28;20175;-71
2024/03/22 04:35:12;;;;;;;20.73;12.50;;;9.90;99.90;;;;;;5051191;28;20178;-71
2024/03/22 04:37:38;;;;;;;23.43;13.30;;;9.90;99.90;;;;;;5051551;28;20252;-70
2024/03/22 04:40:04;;;;;;;20.00;12.17;;;9.90;99.90;;;;;;5051508;28;20189;-70
2024/03/22 04:42:30;;;;;;;19.57;12.93;;;9.80;99.90;;;;;;5051090;28;20210;-72
2024/03/22 04:44:55;;;;;;;18.13;12.73;;;9.80;99.90;;;;;;5051225;28;20518;-71
2024/03/22 04:47:21;;;;;;;22.97;13.27;;;9.80;99.90;;;;;;5052208;28;20683;-71
2024/03/22 04:49:47;;;;;;;22.87;12.87;;;9.80;99.90;;;;;;5054566;28;20163;-71
2024/03/22 04:52:12;;;;;;;18.77;12.90;;;9.80;99.90;;;;;;5056278;28;20186;-71
2024/03/22 04:54:38;;;;;;;24.57;13.63;;;9.80;99.90;;;;;;5055189;28;20221;-71
2024/03/22 04:57:03;;;;;;;19.47;13.73;;;9.80;99.90;;;;;;5055117;28;20738;-71
2024/03/22 04:59:29;;;;;;;21.63;13.43;;;9.80;99.90;;;;;;5055338;28;20225;-71
2024/03/22 05:01:54;;;;;;;18.50;12.97;;;9.90;99.90;;;;;;5055225;28;20216;-71
2024/03/22 05:04:20;;;;;;;18.63;13.33;;;9.80;99.90;;;;;;5055250;28;20572;-71
2024/03/22 05:06:46;;;;;;;26.00;14.53;;;9.90;99.90;;;;;;5054463;28;20195;-71
2024/03/22 05:09:11;;;;;;;21.30;13.23;;;9.90;99.90;;;;;;5054898;28;20203;-71
2024/03/22 05:11:37;;;;;;;21.90;14.67;;;10.00;99.90;;;;;;5054970;28;20179;-71
2024/03/22 05:14:03;;;;;;;24.80;15.37;;;10.00;99.90;;;;;;5054643;28;20218;-70
2024/03/22 05:16:28;;;;;;;25.17;15.80;;;10.10;99.90;;;;;;5054522;28;20611;-71
2024/03/22 05:18:54;;;;;;;26.40;16.90;;;10.10;99.90;;;;;;5054794;28;20224;-71
2024/03/22 05:21:20;;;;;;;34.50;20.00;;;10.20;99.90;;;;;;5054861;28;20694;-72
2024/03/22 05:23:46;;;;;;;35.30;21.53;;;10.30;99.90;;;;;;5054242;28;20171;-71
2024/03/22 05:26:11;;;;;;;35.63;21.53;;;10.50;99.90;;;;;;5054368;28;20202;-71
2024/03/22 05:28:37;;;;;;;27.53;19.93;;;10.70;99.90;;;;;;5054660;28;20640;-71
2024/03/22 05:31:03;;;;;;;31.73;20.27;;;10.80;99.90;;;;;;5054391;28;20187;-72
2024/03/22 05:33:28;;;;;;;38.13;20.47;;;11.00;99.90;;;;;;5055089;28;20175;-72
2024/03/22 05:35:54;;;;;;;27.40;19.67;;;11.20;99.90;;;;;;5054673;28;20191;-71
2024/03/22 05:38:19;;;;;;;28.43;19.23;;;11.30;99.90;;;;;;5054447;28;20509;-71
2024/03/22 05:40:47;;;;;;;27.43;17.97;;;11.40;99.90;;;;;;5053533;28;20182;-71
2024/03/22 05:43:13;;;;;;;26.67;17.57;;;11.50;99.90;;;;;;5054261;28;20210;-72
2024/03/22 05:45:38;;;;;;;27.37;18.50;;;11.60;99.90;;;;;;5055131;28;20174;-72
2024/03/22 05:48:04;;;;;;;28.50;19.07;;;11.70;99.90;;;;;;5055317;28;20706;-72
2024/03/22 05:50:30;;;;;;;26.83;17.13;;;11.80;99.90;;;;;;5055596;28;20174;-72
2024/03/22 05:52:56;;;;;;;21.90;16.97;;;11.90;99.90;;;;;;5055240;28;20185;-72
2024/03/22 05:55:22;;;;;;;30.20;17.93;;;12.00;99.90;;;;;;5055135;28;20687;-72
2024/03/22 05:57:47;;;;;;;28.50;17.90;;;12.00;99.90;;;;;;5054265;28;20300;-72
2024/03/22 06:00:13;;;;;;;29.27;17.50;;;12.10;99.90;;;;;;5054313;28;20177;-72
2024/03/22 06:02:39;;;;;;;25.27;17.40;;;12.20;99.90;;;;;;5054327;28;20198;-72
2024/03/22 06:05:05;;;;;;;24.83;17.37;;;12.30;99.90;;;;;;5054190;28;20237;-73
2024/03/22 06:07:38;;;;;;;27.27;18.60;;;12.40;99.90;;;;;;5054043;28;20191;-72
2024/03/22 06:10:05;;;;;;;25.43;18.17;;;12.40;99.90;;;;;;5053694;28;20165;-72
2024/03/22 06:12:30;;;;;;;23.97;17.67;;;12.50;99.90;;;;;;5054886;28;20190;-72
2024/03/22 06:14:56;;;;;;;30.23;18.63;;;12.60;99.90;;;;;;5053536;28;20178;-72
2024/03/22 06:17:22;;;;;;;25.80;19.03;;;12.60;99.90;;;;;;5053965;28;20187;-72
2024/03/22 06:19:47;;;;;;;26.00;16.60;;;12.60;99.90;;;;;;5053816;28;20308;-72
2024/03/22 06:22:13;;;;;;;26.80;17.70;;;12.70;99.90;;;;;;5053262;28;20214;-73
2024/03/22 06:24:39;;;;;;;29.37;18.20;;;12.70;99.90;;;;;;5045250;28;20551;-72
2024/03/22 06:27:05;;;;;;;25.47;18.60;;;12.70;99.90;;;;;;5053006;28;20190;-72
2024/03/22 06:29:31;;;;;;;46.17;19.63;;;12.70;99.90;;;;;;5051609;28;20179;-72
2024/03/22 06:31:56;;;;;;;28.60;18.37;;;12.70;99.90;;;;;;5052935;28;20187;-72
2024/03/22 06:34:22;;;;;;;29.00;19.20;;;12.80;99.90;;;;;;5052689;28;20183;-73
2024/03/22 06:36:47;;;;;;;26.70;19.50;;;12.90;99.90;;;;;;5051761;28;20209;-72
2024/03/22 06:39:14;;;;;;;27.17;18.73;;;12.90;99.90;;;;;;5052375;28;20182;-72
2024/03/22 06:41:40;;;;;;;29.27;18.90;;;13.10;99.90;;;;;;5050946;28;20679;-72
2024/03/22 06:44:05;;;;;;;26.90;18.63;;;13.20;99.90;;;;;;5052338;28;20182;-73
2024/03/22 06:46:31;;;;;;;29.20;19.03;;;13.30;99.90;;;;;;5052661;28;20206;-72
2024/03/22 06:48:58;;;;;;;26.40;18.67;;;13.40;99.90;;;;;;5052401;28;20259;-72
2024/03/22 06:51:24;;;;;;;29.13;19.00;;;13.40;99.90;;;;;;5052782;28;20191;-73
2024/03/22 06:53:51;;;;;;;28.57;18.07;;;13.60;99.90;;;;;;5052326;28;20189;-73
2024/03/22 06:56:16;;;;;;;28.47;19.53;;;13.70;99.90;;;;;;5052164;28;20691;-73
2024/03/22 06:58:42;;;;;;;28.57;20.20;;;13.80;99.90;;;;;;5052635;28;20186;-72
2024/03/22 07:01:08;;;;;;;27.03;18.70;;;13.80;99.90;;;;;;5052787;28;20287;-72
2024/03/22 07:03:33;;;;;;;24.37;17.53;;;13.90;99.90;;;;;;5051035;28;20175;-73
2024/03/22 07:06:00;;;;;;;26.97;18.70;;;13.90;99.90;;;;;;5051007;28;20237;-72
2024/03/22 07:08:26;;;;;;;31.83;18.60;;;14.00;99.90;;;;;;5052216;28;20175;-72
2024/03/22 07:10:53;;;;;;;26.00;18.40;;;14.20;99.90;;;;;;5052190;28;20181;-73
2024/03/22 07:13:19;;;;;;;26.07;19.43;;;14.30;99.90;;;;;;5051480;28;20580;-72
2024/03/22 07:15:47;;;;;;;21.90;17.13;;;14.30;99.90;;;;;;5051915;28;20230;-73
2024/03/22 07:18:14;;;;;;;24.73;17.80;;;14.40;99.90;;;;;;5052856;28;20663;-72
2024/03/22 07:20:39;;;;;;;22.80;16.80;;;14.40;99.90;;;;;;5051985;28;20636;-71
2024/03/22 07:23:05;;;;;;;22.80;16.20;;;14.40;99.90;;;;;;5050303;28;20209;-72
2024/03/22 07:25:31;;;;;;;24.93;16.83;;;14.30;99.90;;;;;;5051817;28;20257;-72
2024/03/22 07:27:57;;;;;;;19.93;15.57;;;14.40;99.90;;;;;;5051617;28;20548;-72
2024/03/22 07:30:22;;;;;;;23.23;16.13;;;14.40;99.90;;;;;;5051984;28;20183;-73
2024/03/22 07:32:48;;;;;;;23.03;15.03;;;14.50;99.90;;;;;;5051775;28;20604;-72
2024/03/22 07:35:14;;;;;;;21.63;15.40;;;14.50;99.90;;;;;;5052698;28;20324;-73
2024/03/22 07:37:39;;;;;;;23.80;14.93;;;14.60;99.90;;;;;;5051943;28;20206;-72
2024/03/22 07:40:06;;;;;;;19.63;15.07;;;14.70;99.90;;;;;;5051330;28;20301;-72
2024/03/22 07:42:32;;;;;;;23.83;15.43;;;14.80;99.90;;;;;;5051611;28;20218;-72
2024/03/22 07:44:57;;;;;;;21.33;14.43;;;15.00;99.90;;;;;;5051014;28;20252;-72
2024/03/22 07:47:23;;;;;;;17.57;13.87;;;15.10;99.90;;;;;;5051048;28;20577;-73
2024/03/22 07:49:48;;;;;;;22.90;13.73;;;15.30;99.90;;;;;;5051225;28;20639;-72
2024/03/22 07:52:14;;;;;;;18.73;13.77;;;15.30;99.90;;;;;;5051539;28;20175;-72
2024/03/22 07:54:39;;;;;;;20.37;13.97;;;15.40;99.90;;;;;;5051329;28;20266;-73
2024/03/22 07:57:05;;;;;;;21.20;13.00;;;15.30;99.90;;;;;;5050653;28;20218;-72
2024/03/22 07:59:32;;;;;;;18.33;13.77;;;15.40;99.90;;;;;;5050064;28;20183;-72
2024/03/22 08:01:57;;;;;;;17.60;12.83;;;15.40;99.90;;;;;;5050679;28;20206;-72
2024/03/22 08:04:23;;;;;;;18.50;13.37;;;15.40;99.90;;;;;;5051093;28;20258;-72
2024/03/22 08:06:51;;;;;;;18.83;12.70;;;15.40;99.90;;;;;;5050851;28;20202;-72
2024/03/22 08:09:18;;;;;;;26.17;12.93;;;15.60;99.90;;;;;;5051220;28;20174;-71
2024/03/22 08:11:44;;;;;;;17.13;13.10;;;15.70;99.90;;;;;;5051220;28;20205;-72
2024/03/22 08:14:09;;;;;;;16.13;11.93;;;16.20;99.90;;;;;;5050779;28;20580;-73
2024/03/22 08:16:35;;;;;;;13.00;10.23;;;16.70;99.90;;;;;;5050604;28;20241;-73
2024/03/22 08:19:00;;;;;;;16.27;11.53;;;17.20;99.90;;;;;;5051113;28;20183;-71
2024/03/22 08:21:26;;;;;;;15.67;11.67;;;17.40;99.90;;;;;;5051194;28;20286;-72
2024/03/22 08:23:52;;;;;;;17.03;10.63;;;17.50;99.90;;;;;;5050655;28;20175;-72
2024/03/22 08:26:18;;;;;;;15.40;11.50;;;17.30;99.90;;;;;;5050631;28;20678;-73
2024/03/22 08:28:44;;;;;;;15.83;12.17;;;17.00;99.90;;;;;;5050886;28;20265;-72
2024/03/22 08:31:10;;;;;;;15.93;11.63;;;16.80;99.90;;;;;;5050672;28;20329;-73
2024/03/22 08:33:36;;;;;;;18.93;11.43;;;16.70;99.90;;;;;;5051552;28;20179;-72
2024/03/22 08:36:01;;;;;;;16.27;11.33;;;16.60;99.90;;;;;;5050595;28;20205;-74
2024/03/22 08:38:27;;;;;;;15.17;10.87;;;16.40;99.90;;;;;;5050766;28;20189;-72
2024/03/22 08:40:52;;;;;;;15.47;11.23;;;16.40;99.90;;;;;;5050235;28;20686;-75
2024/03/22 08:43:18;;;;;;;16.63;11.23;;;16.30;99.90;;;;;;5050839;28;20203;-72
2024/03/22 08:45:44;;;;;;;17.63;11.27;;;16.30;99.90;;;;;;5050607;28;20332;-71
2024/03/22 08:48:09;;;;;;;13.37;10.30;;;16.20;99.90;;;;;;5049901;28;20293;-73
2024/03/22 08:50:35;;;;;;;15.67;10.27;;;16.10;99.90;;;;;;5050739;28;20182;-74
2024/03/22 08:53:04;;;;;;;11.60;9.60;;;16.10;99.90;;;;;;5049915;28;20194;-73
2024/03/22 08:55:30;;;;;;;15.53;11.47;;;16.10;99.90;;;;;;5050519;28;20178;-73
2024/03/22 08:57:55;;;;;;;15.60;10.50;;;16.10;99.90;;;;;;5050009;28;20272;-72
2024/03/22 09:00:21;;;;;;;14.80;10.63;;;16.30;99.90;;;;;;5051349;28;20178;-72
2024/03/22 09:02:47;;;;;;;16.20;11.37;;;16.50;99.90;;;;;;5050446;28;20217;-72
2024/03/22 09:05:13;;;;;;;14.30;10.37;;;16.60;99.90;;;;;;5049960;28;20266;-72
2024/03/22 09:07:38;;;;;;;13.73;10.90;;;16.70;99.90;;;;;;5050462;28;20234;-72
2024/03/22 09:10:06;;;;;;;11.43;9.77;;;16.70;99.90;;;;;;5050054;28;20644;-72
2024/03/22 09:12:32;;;;;;;12.50;9.70;;;16.60;99.90;;;;;;5050393;28;20181;-71
2024/03/22 09:14:57;;;;;;;15.47;10.97;;;16.70;99.90;;;;;;5049939;28;20279;-73
2024/03/22 09:17:23;;;;;;;14.40;10.57;;;16.70;99.90;;;;;;5050324;28;20571;-72
2024/03/22 09:19:48;;;;;;;13.47;10.10;;;16.70;99.90;;;;;;5050367;28;20191;-71
2024/03/22 09:22:15;;;;;;;15.90;10.73;;;16.80;99.90;;;;;;5049613;28;20563;-72
2024/03/22 09:24:40;;;;;;;12.30;10.17;;;16.80;99.90;;;;;;5050341;28;20194;-73
2024/03/22 09:27:09;;;;;;;13.27;9.97;;;16.90;99.90;;;;;;5049878;28;20644;-72
2024/03/22 09:29:36;;;;;;;13.97;9.93;;;17.00;99.90;;;;;;5050457;28;20175;-72
2024/03/22 09:32:02;;;;;;;12.97;9.43;;;17.10;99.90;;;;;;5050322;28;20182;-72
2024/03/22 09:34:29;;;;;;;14.37;10.40;;;17.30;99.90;;;;;;5050300;28;20642;-72
2024/03/22 09:36:56;;;;;;;13.70;8.93;;;17.40;99.90;;;;;;5053348;28;20230;-72
2024/03/22 09:39:22;;;;;;;12.90;10.17;;;17.30;99.90;;;;;;5054428;28;20730;-72
2024/03/22 09:41:48;;;;;;;16.43;11.00;;;17.10;99.90;;;;;;5054544;28;20290;-72
2024/03/22 09:44:21;;;;;;;14.40;10.07;;;16.90;99.90;;;;;;5053702;28;20179;-71
2024/03/22 09:46:48;;;;;;;14.60;9.60;;;17.00;99.90;;;;;;5054128;28;20202;-73
2024/03/22 09:49:14;;;;;;;16.43;10.40;;;17.10;99.90;;;;;;5054050;28;20224;-71
2024/03/22 09:51:41;;;;;;;11.47;8.87;;;17.30;99.90;;;;;;5053973;28;20182;-72
2024/03/22 09:54:08;;;;;;;14.20;9.87;;;17.70;99.90;;;;;;5053942;28;20182;-72
2024/03/22 09:56:34;;;;;;;14.03;9.50;;;18.10;99.90;;;;;;5049316;28;20569;-73
2024/03/22 09:59:00;;;;;;;14.27;9.47;;;18.40;99.90;;;;;;5054976;28;20183;-74
2024/03/22 10:01:26;;;;;;;12.20;9.70;;;18.60;99.90;;;;;;5055221;28;20660;-73
2024/03/22 10:03:52;;;;;;;11.63;9.60;;;18.70;99.90;;;;;;5056625;28;20183;-73
2024/03/22 10:06:18;;;;;;;14.10;9.77;;;18.40;99.90;;;;;;5054925;28;20470;-72
2024/03/22 10:08:44;;;;;;;10.97;9.13;;;18.20;99.90;;;;;;5056399;28;20266;-73
2024/03/22 10:11:10;;;;;;;13.33;9.03;;;18.00;99.90;;;;;;5056482;28;20605;-72
2024/03/22 10:13:36;;;;;;;11.47;9.60;;;17.60;99.90;;;;;;5056090;28;20202;-73
2024/03/22 10:16:02;;;;;;;13.77;9.40;;;17.50;99.90;;;;;;5055547;28;20201;-73
2024/03/22 10:18:28;;;;;;;16.77;9.33;;;17.40;99.90;;;;;;5056627;28;20246;-72
2024/03/22 10:21:04;;;;;;;14.23;9.33;;;17.20;99.90;;;;;;5056769;28;20174;-73
2024/03/22 10:23:30;;;;;;;13.47;10.53;;;17.10;99.90;;;;;;5055424;28;20171;-72
2024/03/22 10:25:59;;;;;;;13.23;10.87;;;17.10;99.90;;;;;;5055685;28;20197;-72
2024/03/22 10:28:28;;;;;;;18.17;11.77;;;17.10;99.90;;;;;;5055317;28;20174;-72
2024/03/22 10:30:54;;;;;;;14.87;10.80;;;17.00;99.90;;;;;;5055127;28;20555;-74
2024/03/22 10:33:23;;;;;;;17.07;11.33;;;17.00;99.90;;;;;;5054778;28;20174;-74
2024/03/22 10:35:52;;;;;;;16.40;11.37;;;17.10;99.90;;;;;;5056142;28;20337;-74
2024/03/22 10:38:19;;;;;;;16.17;11.53;;;17.10;99.90;;;;;;5056538;28;20229;-74
2024/03/22 10:40:48;;;;;;;15.70;12.23;;;17.10;99.90;;;;;;5054012;28;20186;-73
2024/03/22 10:43:17;;;;;;;15.40;11.70;;;17.10;99.90;;;;;;5055806;28;20203;-74
2024/03/22 10:45:45;;;;;;;15.33;12.30;;;17.20;99.90;;;;;;5055054;28;20175;-74
2024/03/22 10:48:12;;;;;;;17.00;12.40;;;17.20;99.90;;;;;;5053030;28;20174;-72
2024/03/22 10:50:44;;;;;;;15.27;11.80;;;17.30;99.90;;;;;;5052958;28;20190;-75
2024/03/22 10:53:24;;;;;;;17.23;12.47;;;17.40;99.90;;;;;;5054566;28;20193;-73
2024/03/22 10:55:50;;;;;;;16.83;12.43;;;17.50;99.90;;;;;;5054629;28;20245;-74
2024/03/22 10:58:18;;;;;;;16.70;11.93;;;17.40;99.90;;;;;;5053001;28;20650;-73
2024/03/22 11:00:44;;;;;;;19.27;13.23;;;17.40;99.90;;;;;;5054090;28;20189;-74
2024/03/22 11:03:10;;;;;;;20.03;12.30;;;17.40;99.90;;;;;;5053947;28;20195;-73
2024/03/22 11:05:50;;;;;;;18.07;13.60;;;17.20;99.90;;;;;;5052295;28;20202;-75
2024/03/22 11:08:26;;;;;;;17.87;13.37;;;17.00;99.90;;;;;;5053573;28;20175;-73
2024/03/22 11:10:53;;;;;;;16.43;13.13;;;16.80;99.90;;;;;;5053736;28;20186;-73
2024/03/22 11:13:19;;;;;;;20.57;13.23;;;16.70;99.90;;;;;;5053366;28;20175;-73
2024/03/22 11:15:47;;;;;;;16.73;11.90;;;16.70;99.90;;;;;;5052487;28;20191;-74
2024/03/22 11:18:13;;;;;;;17.00;13.30;;;16.80;99.90;;;;;;5053597;28;20179;-74
2024/03/22 11:20:38;;;;;;;17.63;12.10;;;16.80;99.90;;;;;;5055010;28;20177;-71
2024/03/22 11:23:05;;;;;;;18.17;13.20;;;16.70;99.90;;;;;;5054807;28;20645;-74
2024/03/22 11:25:34;;;;;;;14.93;12.53;;;16.70;99.90;;;;;;5054131;28;20250;-76
2024/03/22 11:28:03;;;;;;;17.07;13.57;;;16.70;99.90;;;;;;5055484;28;20254;-73
2024/03/22 11:30:32;;;;;;;20.23;13.83;;;16.80;99.90;;;;;;5052986;28;20175;-73
2024/03/22 11:33:01;;;;;;;17.70;13.73;;;16.80;99.90;;;;;;5053647;28;20578;-74
2024/03/22 11:35:27;;;;;;;16.57;13.27;;;16.90;99.90;;;;;;5054484;28;20189;-73
2024/03/22 11:37:52;;;;;;;20.90;13.60;;;17.00;99.90;;;;;;5053659;28;20179;-74
2024/03/22 11:40:18;;;;;;;17.57;14.80;;;17.10;99.90;;;;;;5053087;28;20182;-72
2024/03/22 11:42:49;;;;;;;18.10;14.10;;;17.20;99.90;;;;;;5051932;28;20290;-75
2024/03/22 11:45:20;;;;;;;18.87;13.93;;;17.20;99.90;;;;;;5053317;28;20663;-72
2024/03/22 11:47:47;;;;;;;19.93;12.53;;;17.30;99.90;;;;;;5052643;28;20191;-73
2024/03/22 11:50:14;;;;;;;19.23;12.83;;;17.50;99.90;;;;;;5051588;28;20598;-73
2024/03/22 11:52:43;;;;;;;19.33;13.53;;;17.70;99.90;;;;;;5051739;28;20222;-73
2024/03/22 11:55:10;;;;;;;17.23;12.27;;;17.80;99.90;;;;;;5052709;28;20533;-74
2024/03/22 11:57:36;;;;;;;17.33;12.20;;;17.60;99.90;;;;;;5052651;28;20292;-73
2024/03/22 12:00:08;;;;;;;20.63;13.27;;;17.30;99.90;;;;;;5051824;28;20244;-73
2024/03/22 12:02:36;;;;;;;16.30;12.53;;;17.20;99.90;;;;;;5051911;28;20666;-73
2024/03/22 12:05:02;;;;;;;16.70;11.07;;;17.30;99.90;;;;;;5051487;28;20218;-72
2024/03/22 12:07:29;;;;;;;14.80;11.00;;;17.50;99.90;;;;;;5051564;28;20194;-73
2024/03/22 12:09:54;;;;;;;14.67;11.20;;;17.70;99.90;;;;;;5052014;28;20193;-72
2024/03/22 12:12:22;;;;;;;15.07;11.73;;;17.80;99.90;;;;;;5051785;28;20178;-74
2024/03/22 12:14:50;;;;;;;16.50;13.27;;;17.60;99.90;;;;;;5051419;28;20535;-74
2024/03/22 12:17:16;;;;;;;20.97;12.20;;;17.50;99.90;;;;;;5051448;28;20190;-74
2024/03/22 12:19:42;;;;;;;16.83;12.43;;;17.40;99.90;;;;;;5051657;28;20179;-73
2024/03/22 12:22:07;;;;;;;20.20;12.93;;;17.20;99.90;;;;;;5050744;28;20268;-73
2024/03/22 12:24:33;;;;;;;20.43;13.73;;;17.10;99.90;;;;;;5052467;28;20246;-75
2024/03/22 12:26:59;;;;;;;16.30;13.30;;;17.00;99.90;;;;;;5051023;28;20194;-73